createdAt,value
2022-09-15T00:01:13.856Z,17.50
2022-09-15T00:03:40.899Z,17.50
2022-09-15T00:06:07.849Z,17.50
2022-09-15T00:08:34.636Z,17.50
2022-09-15T00:11:17.661Z,17.60
2022-09-15T00:13:44.655Z,17.50
2022-09-15T00:16:15.014Z,17.60
2022-09-15T00:18:42.631Z,17.60
2022-09-15T00:21:11.403Z,17.60
2022-09-15T00:23:38.493Z,17.60
2022-09-15T00:26:09.776Z,17.60
2022-09-15T00:28:36.762Z,17.60
2022-09-15T00:31:09.710Z,17.70
2022-09-15T00:33:36.668Z,17.60
2022-09-15T00:36:05.763Z,17.70
2022-09-15T00:38:32.825Z,17.70
2022-09-15T00:41:00.084Z,17.70
2022-09-15T00:43:47.857Z,17.70
2022-09-15T00:46:15.872Z,17.70
2022-09-15T00:48:48.945Z,17.70
2022-09-15T00:51:17.627Z,17.70
2022-09-15T00:53:44.673Z,17.70
2022-09-15T00:56:12.257Z,17.70
2022-09-15T00:58:42.625Z,17.70
2022-09-15T01:01:09.443Z,17.60
2022-09-15T01:03:36.755Z,17.60
2022-09-15T01:06:33.543Z,17.60
2022-09-15T01:09:10.810Z,17.60
2022-09-15T01:11:37.608Z,17.60
2022-09-15T01:14:04.422Z,17.60
2022-09-15T01:16:37.402Z,17.50
2022-09-15T01:19:34.804Z,17.50
2022-09-15T01:22:48.933Z,17.50
2022-09-15T01:25:29.762Z,17.40
2022-09-15T01:28:08.717Z,17.40
2022-09-15T01:30:52.531Z,17.40
2022-09-15T01:33:24.528Z,17.30
2022-09-15T01:36:00.355Z,17.30
2022-09-15T01:38:35.662Z,17.30
2022-09-15T01:41:25.693Z,17.30
2022-09-15T01:43:57.155Z,17.30
2022-09-15T01:46:24.822Z,17.30
2022-09-15T01:48:52.643Z,17.30
2022-09-15T01:51:19.653Z,17.30
2022-09-15T01:53:46.572Z,17.40
2022-09-15T01:56:13.298Z,17.40
2022-09-15T01:58:40.348Z,17.40
2022-09-15T02:01:15.886Z,17.40
2022-09-15T02:03:56.357Z,17.40
2022-09-15T02:06:36.018Z,17.50
2022-09-15T02:09:12.721Z,17.50
2022-09-15T02:11:45.613Z,17.50
2022-09-15T02:14:18.365Z,17.50
2022-09-15T02:16:47.028Z,17.50
2022-09-15T02:19:14.636Z,17.50
2022-09-15T02:21:53.693Z,17.50
2022-09-15T02:24:27.882Z,17.50
2022-09-15T02:26:55.410Z,17.50
2022-09-15T02:29:22.615Z,17.50
2022-09-15T02:31:49.814Z,17.50
2022-09-15T02:34:36.451Z,17.50
2022-09-15T02:37:04.718Z,17.60
2022-09-15T02:39:33.291Z,17.60
2022-09-15T02:42:02.349Z,17.60
2022-09-15T02:44:32.995Z,17.60
2022-09-15T02:47:00.526Z,17.60
2022-09-15T02:49:27.394Z,17.60
2022-09-15T02:51:54.164Z,17.60
2022-09-15T02:54:20.866Z,17.60
2022-09-15T02:56:47.640Z,17.60
2022-09-15T02:59:14.511Z,17.60
2022-09-15T03:01:41.333Z,17.60
2022-09-15T03:04:08.076Z,17.60
2022-09-15T03:06:36.094Z,17.60
2022-09-15T03:09:05.896Z,17.60
2022-09-15T03:11:32.925Z,17.50
2022-09-15T03:14:01.139Z,17.50
2022-09-15T03:16:28.757Z,17.50
2022-09-15T03:18:56.127Z,17.50
2022-09-15T03:21:23.130Z,17.50
2022-09-15T03:23:49.953Z,17.50
2022-09-15T03:26:17.033Z,17.50
2022-09-15T03:28:43.982Z,17.50
2022-09-15T03:31:10.724Z,17.50
2022-09-15T03:33:37.631Z,17.50
2022-09-15T03:36:04.716Z,17.50
2022-09-15T03:38:31.513Z,17.50
2022-09-15T03:41:03.089Z,17.50
2022-09-15T03:43:30.928Z,17.50
2022-09-15T03:45:58.190Z,17.50
2022-09-15T03:48:25.199Z,17.50
2022-09-15T03:50:52.030Z,17.50
2022-09-15T03:53:18.863Z,17.50
2022-09-15T03:55:45.939Z,17.50
2022-09-15T03:58:13.244Z,17.50
2022-09-15T04:00:41.148Z,17.50
2022-09-15T04:03:08.014Z,17.50
2022-09-15T04:05:35.171Z,17.50
2022-09-15T04:08:02.296Z,17.50
2022-09-15T04:10:29.326Z,17.50
2022-09-15T04:12:56.241Z,17.50
2022-09-15T04:15:23.161Z,17.50
2022-09-15T04:17:49.963Z,17.50
2022-09-15T04:20:17.338Z,17.40
2022-09-15T04:22:44.930Z,17.40
2022-09-15T04:25:12.059Z,17.40
2022-09-15T04:27:38.877Z,17.40
2022-09-15T04:30:07.063Z,17.40
2022-09-15T04:32:35.605Z,17.40
2022-09-15T04:35:02.907Z,17.40
2022-09-15T04:37:29.861Z,17.40
2022-09-15T04:39:56.908Z,17.40
2022-09-15T04:42:24.037Z,17.40
2022-09-15T04:44:50.984Z,17.40
2022-09-15T04:47:18.036Z,17.40
2022-09-15T04:49:44.770Z,17.40
2022-09-15T04:52:11.672Z,17.40
2022-09-15T04:54:41.279Z,17.40
2022-09-15T04:57:09.492Z,17.40
2022-09-15T04:59:36.478Z,17.40
2022-09-15T05:02:03.542Z,17.30
2022-09-15T05:04:30.541Z,17.30
2022-09-15T05:06:57.315Z,17.30
2022-09-15T05:09:24.283Z,17.30
2022-09-15T05:11:51.081Z,17.30
2022-09-15T05:14:17.949Z,17.30
2022-09-15T05:16:44.716Z,17.30
2022-09-15T05:19:11.616Z,17.40
2022-09-15T05:21:38.581Z,17.40
2022-09-15T05:24:05.507Z,17.40
2022-09-15T05:26:32.549Z,17.50
2022-09-15T05:28:59.362Z,17.60
2022-09-15T05:31:28.178Z,17.70
2022-09-15T05:33:55.013Z,17.80
2022-09-15T05:36:25.032Z,18.00
2022-09-15T05:38:53.066Z,18.30
2022-09-15T05:41:20.005Z,18.50
2022-09-15T05:43:47.086Z,18.80
2022-09-15T05:46:14.198Z,19.00
2022-09-15T05:48:41.082Z,19.10
2022-09-15T05:51:08.024Z,19.10
2022-09-15T05:53:35.247Z,19.20
2022-09-15T05:56:04.203Z,19.20
2022-09-15T05:58:31.218Z,19.40
2022-09-15T06:00:58.730Z,19.50
2022-09-15T06:03:30.023Z,19.50
2022-09-15T06:06:01.665Z,19.40
2022-09-15T06:08:35.973Z,19.30
2022-09-15T06:11:12.812Z,19.30
2022-09-15T06:13:40.296Z,19.30
2022-09-15T06:16:08.992Z,19.30
2022-09-15T06:18:37.203Z,19.30
2022-09-15T06:21:06.051Z,19.30
2022-09-15T06:23:32.746Z,19.40
2022-09-15T06:26:13.496Z,19.30
2022-09-15T06:28:42.110Z,19.30
2022-09-15T06:31:12.720Z,19.20
2022-09-15T06:33:44.139Z,19.20
2022-09-15T06:36:14.946Z,19.20
2022-09-15T06:38:42.050Z,19.20
2022-09-15T06:41:08.835Z,19.20
2022-09-15T06:43:36.354Z,19.20
2022-09-15T06:46:07.919Z,19.30
2022-09-15T06:48:35.336Z,19.40
2022-09-15T06:51:02.385Z,19.40
2022-09-15T06:53:31.178Z,19.40
2022-09-15T06:56:05.173Z,19.40
2022-09-15T06:58:32.339Z,19.30
2022-09-15T07:01:04.095Z,19.30
2022-09-15T07:03:31.070Z,19.30
2022-09-15T07:05:58.341Z,19.30
2022-09-15T07:08:25.074Z,19.20
2022-09-15T07:10:52.323Z,19.20
2022-09-15T07:13:19.127Z,19.10
2022-09-15T07:15:59.477Z,19.10
2022-09-15T07:18:26.517Z,19.10
2022-09-15T07:20:56.301Z,19.10
2022-09-15T07:23:23.070Z,19.10
2022-09-15T07:25:49.784Z,19.20
2022-09-15T07:28:16.616Z,19.20
2022-09-15T07:30:43.548Z,19.20
2022-09-15T07:33:11.764Z,19.20
2022-09-15T07:35:42.435Z,19.20
2022-09-15T07:38:09.517Z,19.30
2022-09-15T07:40:36.864Z,19.40
2022-09-15T07:43:04.707Z,19.50
2022-09-15T07:45:32.201Z,19.50
2022-09-15T07:47:58.981Z,19.60
2022-09-15T07:50:25.916Z,19.60
2022-09-15T07:52:56.219Z,19.70
2022-09-15T07:55:23.410Z,19.80
2022-09-15T07:58:01.622Z,19.90
2022-09-15T08:00:28.554Z,20.10
2022-09-15T08:02:56.052Z,20.20
2022-09-15T08:05:27.973Z,20.20
2022-09-15T08:07:55.843Z,20.20
2022-09-15T08:10:23.801Z,20.10
2022-09-15T08:12:51.043Z,20.00
2022-09-15T08:15:18.308Z,19.90
2022-09-15T08:17:45.094Z,19.90
2022-09-15T08:20:11.932Z,20.00
2022-09-15T08:22:39.744Z,20.20
2022-09-15T08:25:06.875Z,20.30
2022-09-15T08:27:33.676Z,20.30
2022-09-15T08:30:00.418Z,20.40
2022-09-15T08:32:27.163Z,20.40
2022-09-15T08:34:53.888Z,20.30
2022-09-15T08:37:20.608Z,20.30
2022-09-15T08:39:47.405Z,20.20
2022-09-15T08:42:18.523Z,20.10
2022-09-15T08:44:51.764Z,20.10
2022-09-15T08:47:27.360Z,20.10
2022-09-15T08:50:05.171Z,20.20
2022-09-15T08:52:46.405Z,20.30
2022-09-15T08:55:39.663Z,20.40
2022-09-15T08:58:06.433Z,20.40
2022-09-15T09:00:33.207Z,20.50
2022-09-15T09:03:21.768Z,20.60
2022-09-15T09:06:08.308Z,20.60
2022-09-15T09:08:51.717Z,20.50
2022-09-15T09:11:50.285Z,20.30
2022-09-15T09:14:35.410Z,20.10
2022-09-15T09:17:29.005Z,19.90
2022-09-15T09:20:26.047Z,19.70
2022-09-15T09:22:53.897Z,19.60
2022-09-15T09:25:27.609Z,19.50
2022-09-15T09:27:55.525Z,19.40
2022-09-15T09:30:23.247Z,19.40
2022-09-15T09:33:38.609Z,19.40
2022-09-15T09:36:05.651Z,19.40
2022-09-15T09:38:35.440Z,19.40
2022-09-15T09:41:02.818Z,19.30
2022-09-15T09:43:30.115Z,19.30
2022-09-15T09:45:57.121Z,19.40
2022-09-15T09:48:27.691Z,19.40
2022-09-15T09:50:55.284Z,19.60
2022-09-15T09:53:27.606Z,19.80
2022-09-15T09:55:55.323Z,19.90
2022-09-15T09:58:24.378Z,20.00
2022-09-15T10:00:52.369Z,20.10
2022-09-15T10:03:20.191Z,20.10
2022-09-15T10:06:04.616Z,20.10
2022-09-15T10:08:31.441Z,20.10
2022-09-15T10:11:07.793Z,20.20
2022-09-15T10:13:35.598Z,20.30
2022-09-15T10:16:03.273Z,20.40
2022-09-15T10:18:37.241Z,20.50
2022-09-15T10:21:05.888Z,20.70
2022-09-15T10:23:33.689Z,20.70
2022-09-15T10:26:15.791Z,20.60
2022-09-15T10:28:43.116Z,20.50
2022-09-15T10:31:13.277Z,20.30
2022-09-15T10:33:42.011Z,20.20
2022-09-15T10:36:14.637Z,20.30
2022-09-15T10:38:48.655Z,20.40
2022-09-15T10:41:37.725Z,20.60
2022-09-15T10:44:19.102Z,20.70
2022-09-15T10:47:06.280Z,20.70
2022-09-15T10:49:45.028Z,20.50
2022-09-15T10:52:44.177Z,20.30
2022-09-15T10:55:51.546Z,19.70
2022-09-15T10:59:04.602Z,19.50
2022-09-15T11:01:37.850Z,19.50
2022-09-15T11:04:07.704Z,19.40
2022-09-15T11:06:34.476Z,19.40
2022-09-15T11:09:18.678Z,19.40
2022-09-15T11:12:03.678Z,19.40
2022-09-15T11:14:54.827Z,19.50
2022-09-15T11:17:46.329Z,19.60
2022-09-15T11:20:16.150Z,19.70
2022-09-15T11:22:49.799Z,19.70
2022-09-15T11:25:24.359Z,19.80
2022-09-15T11:27:55.505Z,20.00
2022-09-15T11:30:26.533Z,20.00
2022-09-15T11:33:04.188Z,20.10
2022-09-15T11:35:41.884Z,20.20
2022-09-15T11:38:40.544Z,20.40
2022-09-15T11:41:31.156Z,20.40
2022-09-15T11:44:33.069Z,20.50
2022-09-15T11:47:14.911Z,20.50
2022-09-15T11:49:53.019Z,20.50
2022-09-15T11:52:35.036Z,20.50
2022-09-15T11:55:18.258Z,20.70
2022-09-15T11:57:52.479Z,20.70
2022-09-15T12:00:19.293Z,20.70
2022-09-15T12:03:09.826Z,20.80
2022-09-15T12:05:49.201Z,20.80
2022-09-15T12:08:45.662Z,20.80
2022-09-15T12:11:17.603Z,20.80
2022-09-15T12:13:44.408Z,20.80
2022-09-15T12:16:11.415Z,20.70
2022-09-15T12:19:15.993Z,20.70
2022-09-15T12:22:02.634Z,20.60
2022-09-15T12:24:39.424Z,20.60
2022-09-15T12:27:09.756Z,20.60
2022-09-15T12:29:42.095Z,20.40
2022-09-15T12:32:21.356Z,20.30
2022-09-15T12:35:16.423Z,20.20
2022-09-15T12:37:56.201Z,20.20
2022-09-15T12:40:36.020Z,20.20
2022-09-15T12:43:04.546Z,20.20
2022-09-15T12:45:36.420Z,20.20
2022-09-15T12:48:12.241Z,20.10
2022-09-15T12:50:40.962Z,20.10
2022-09-15T12:53:21.249Z,20.10
2022-09-15T12:55:53.063Z,20.10
2022-09-15T12:58:35.044Z,20.10
2022-09-15T13:01:51.640Z,20.10
2022-09-15T13:04:36.465Z,20.10
2022-09-15T13:07:15.565Z,20.10
2022-09-15T13:09:58.633Z,20.20
2022-09-15T13:12:29.648Z,20.20
2022-09-15T13:14:56.560Z,20.20
2022-09-15T13:17:25.111Z,20.30
2022-09-15T13:19:53.922Z,20.40
2022-09-15T13:22:20.753Z,20.50
2022-09-15T13:25:06.189Z,20.60
2022-09-15T13:27:43.896Z,20.80
2022-09-15T13:30:48.770Z,21.10
2022-09-15T13:39:53.008Z,21.90
2022-09-15T13:42:39.919Z,22.00
2022-09-15T13:45:42.631Z,22.00
2022-09-15T13:48:33.617Z,21.80
2022-09-15T13:51:02.190Z,21.60
2022-09-15T13:53:37.247Z,21.30
2022-09-15T13:56:07.879Z,21.10
2022-09-15T14:01:21.513Z,20.70
2022-09-15T14:03:57.305Z,20.50
2022-09-15T14:06:39.016Z,20.50
2022-09-15T14:09:15.002Z,20.40
2022-09-15T14:11:41.992Z,20.20
2022-09-15T14:14:27.212Z,20.10
2022-09-15T14:16:55.303Z,19.90
2022-09-15T14:19:33.550Z,19.70
2022-09-15T14:22:01.967Z,19.70
2022-09-15T14:24:31.910Z,19.50
2022-09-15T14:27:00.748Z,19.10
2022-09-15T14:29:27.542Z,18.80
2022-09-15T14:31:54.703Z,18.50
2022-09-15T14:34:23.312Z,18.50
2022-09-15T14:37:06.203Z,18.40
2022-09-15T14:39:33.690Z,18.20
2022-09-15T14:42:09.490Z,18.10
2022-09-15T14:47:27.993Z,18.20
2022-09-15T14:50:14.321Z,18.20
2022-09-15T14:53:01.434Z,18.10
2022-09-15T14:55:51.780Z,18.00
2022-09-15T14:58:25.691Z,18.00
2022-09-15T15:01:02.221Z,17.90
2022-09-15T15:03:39.171Z,17.80
2022-09-15T15:06:29.977Z,17.80
2022-09-15T15:09:13.566Z,17.80
2022-09-15T15:11:40.540Z,17.90
2022-09-15T15:14:08.082Z,18.00
2022-09-15T15:16:34.993Z,18.10
2022-09-15T15:19:01.900Z,18.10
2022-09-15T15:21:41.511Z,18.20
2022-09-15T15:24:18.247Z,18.20
2022-09-15T15:26:46.573Z,18.00
2022-09-15T15:29:39.204Z,17.90
2022-09-15T15:32:09.961Z,17.90
2022-09-15T15:34:36.723Z,17.80
2022-09-15T15:37:04.498Z,17.70
2022-09-15T15:39:31.438Z,17.70
2022-09-15T15:42:17.012Z,17.70
2022-09-15T15:45:09.562Z,17.70
2022-09-15T15:47:36.797Z,17.60
2022-09-15T15:50:24.439Z,17.50
2022-09-15T15:52:52.180Z,17.40
2022-09-15T15:56:19.351Z,17.30
2022-09-15T15:58:46.191Z,17.30
2022-09-15T16:01:12.998Z,17.20
2022-09-15T16:03:39.811Z,17.20
2022-09-15T16:06:06.734Z,17.20
2022-09-15T16:08:34.590Z,17.10
2022-09-15T16:11:01.744Z,17.10
2022-09-15T16:13:28.650Z,17.10
2022-09-15T16:15:58.554Z,17.00
2022-09-15T16:18:25.671Z,17.10
2022-09-15T16:20:53.096Z,17.00
2022-09-15T16:23:22.404Z,17.00
2022-09-15T16:25:55.972Z,17.00
2022-09-15T16:28:40.777Z,17.00
2022-09-15T16:31:11.041Z,17.00
2022-09-15T16:33:38.284Z,17.00
2022-09-15T16:36:08.219Z,17.10
2022-09-15T16:38:35.921Z,17.00
2022-09-15T16:41:03.653Z,17.10
2022-09-15T16:43:30.676Z,17.00
2022-09-15T16:45:57.447Z,16.90
2022-09-15T16:48:24.315Z,16.90
2022-09-15T16:51:16.904Z,16.90
2022-09-15T16:53:38.548Z,16.90
2022-09-15T16:56:06.572Z,16.80
2022-09-15T17:00:43.624Z,16.70
2022-09-15T17:03:11.253Z,16.70
2022-09-15T17:05:48.283Z,16.70
2022-09-15T17:08:15.640Z,16.60
2022-09-15T17:10:42.677Z,16.60
2022-09-15T17:13:10.814Z,16.50
2022-09-15T17:15:39.032Z,16.40
2022-09-15T17:18:06.780Z,16.40
2022-09-15T17:20:39.121Z,16.40
2022-09-15T17:24:59.521Z,16.30
2022-09-15T17:27:26.303Z,16.20
2022-09-15T17:29:53.063Z,16.10
2022-09-15T17:32:19.975Z,16.00
2022-09-15T17:34:46.745Z,16.00
2022-09-15T17:39:25.679Z,15.90
2022-09-15T17:41:52.536Z,15.80
2022-09-15T17:44:19.722Z,15.80
2022-09-15T17:46:46.547Z,15.70
2022-09-15T17:49:13.469Z,15.70
2022-09-15T17:51:40.229Z,15.60
2022-09-15T17:54:09.797Z,15.60
2022-09-15T17:56:36.896Z,15.50
2022-09-15T17:59:03.680Z,15.40
2022-09-15T18:02:03.149Z,15.50
2022-09-15T18:04:30.075Z,15.40
2022-09-15T18:06:56.813Z,15.40
2022-09-15T18:09:23.654Z,15.30
2022-09-15T18:11:51.249Z,15.30
2022-09-15T18:14:18.112Z,15.20
2022-09-15T18:18:04.111Z,15.20
2022-09-15T18:20:32.256Z,15.30
2022-09-15T18:23:00.109Z,15.30
2022-09-15T18:25:34.550Z,15.30
2022-09-15T18:28:01.753Z,15.30
2022-09-15T18:30:31.063Z,15.30
2022-09-15T18:32:58.022Z,15.30
2022-09-15T18:35:24.897Z,15.30
2022-09-15T18:37:59.117Z,15.40
2022-09-15T18:40:26.854Z,15.40
2022-09-15T18:42:54.212Z,15.40
2022-09-15T18:45:21.042Z,15.40
2022-09-15T18:47:49.144Z,15.50
2022-09-15T18:50:16.801Z,15.50
2022-09-15T18:52:43.689Z,15.50
2022-09-15T18:55:19.169Z,15.50
2022-09-15T18:57:47.213Z,15.50
2022-09-15T19:00:16.249Z,15.50
2022-09-15T19:02:43.328Z,15.50
2022-09-15T19:05:11.593Z,15.60
2022-09-15T19:07:39.042Z,15.60
2022-09-15T19:10:07.166Z,15.60
2022-09-15T19:12:35.125Z,15.60
2022-09-15T19:15:02.408Z,15.60
2022-09-15T19:17:29.191Z,15.60
2022-09-15T19:19:55.962Z,15.60
2022-09-15T19:23:46.950Z,15.60
2022-09-15T19:27:08.325Z,15.60
2022-09-15T19:29:36.073Z,15.60
2022-09-15T19:32:04.146Z,15.50
2022-09-15T19:34:31.162Z,15.50
2022-09-15T19:38:22.314Z,15.50
2022-09-15T19:40:49.250Z,15.40
2022-09-15T19:43:16.000Z,15.40
2022-09-15T19:45:43.543Z,15.30
2022-09-15T19:48:10.398Z,15.30
2022-09-15T19:50:38.418Z,15.30
2022-09-15T19:53:05.172Z,15.20
2022-09-15T19:57:10.398Z,15.20
2022-09-15T20:01:46.955Z,15.20
2022-09-15T20:04:13.795Z,15.10
2022-09-15T20:06:40.697Z,15.10
2022-09-15T20:09:07.708Z,15.10
2022-09-15T20:11:34.765Z,15.00
2022-09-15T20:15:12.060Z,15.00
2022-09-15T20:17:41.825Z,15.00
2022-09-15T20:20:10.529Z,14.90
2022-09-15T20:22:37.418Z,14.90
2022-09-15T20:25:04.542Z,14.90
2022-09-15T20:27:32.388Z,14.90
2022-09-15T20:29:59.561Z,14.80
2022-09-15T20:32:29.322Z,14.80
2022-09-15T20:37:14.250Z,14.80
2022-09-15T20:39:41.024Z,14.80
2022-09-15T20:42:07.793Z,14.80
2022-09-15T20:46:14.131Z,14.70
2022-09-15T20:48:41.115Z,14.70
2022-09-15T20:51:15.653Z,14.70
2022-09-15T20:53:44.046Z,14.70
2022-09-15T20:56:11.247Z,14.70
2022-09-15T20:58:38.487Z,14.70
2022-09-15T21:01:09.950Z,14.60
2022-09-15T21:03:37.669Z,14.60
2022-09-15T21:06:06.492Z,14.60
2022-09-15T21:08:34.284Z,14.60
2022-09-15T21:11:01.819Z,14.60
2022-09-15T21:13:30.116Z,14.60
2022-09-15T21:15:59.669Z,14.50
2022-09-15T21:19:57.082Z,14.50
2022-09-15T21:22:23.888Z,14.50
2022-09-15T21:24:50.619Z,14.40
2022-09-15T21:27:26.947Z,14.40
2022-09-15T21:29:54.417Z,14.40
2022-09-15T21:32:21.249Z,14.30
2022-09-15T21:34:48.248Z,14.30
2022-09-15T21:37:15.054Z,14.30
2022-09-15T21:41:16.503Z,14.30
2022-09-15T21:43:44.575Z,14.30
2022-09-15T21:46:33.617Z,14.20
2022-09-15T21:49:00.475Z,14.20
2022-09-15T21:51:28.441Z,14.10
2022-09-15T21:54:51.948Z,14.10
2022-09-15T21:57:19.528Z,14.00
2022-09-15T22:02:01.186Z,14.00
2022-09-15T22:06:31.696Z,14.00
2022-09-15T22:08:59.593Z,13.90
2022-09-15T22:11:44.742Z,13.90
2022-09-15T22:14:13.070Z,13.90
2022-09-15T22:16:40.394Z,13.80
2022-09-15T22:20:32.355Z,13.80
2022-09-15T22:23:01.935Z,13.80
2022-09-15T22:25:29.076Z,13.70
2022-09-15T22:27:55.921Z,13.70
2022-09-15T22:30:22.740Z,13.70
2022-09-15T22:35:47.321Z,13.70
2022-09-15T22:38:14.125Z,13.60
2022-09-15T22:40:40.906Z,13.60
2022-09-15T22:43:07.896Z,13.60
2022-09-15T22:45:34.651Z,13.60
2022-09-15T22:48:01.684Z,13.60
2022-09-15T22:51:05.643Z,13.60
2022-09-15T22:53:32.417Z,13.60
2022-09-15T22:56:07.312Z,13.60
2022-09-15T22:58:34.645Z,13.50
2022-09-15T23:01:09.757Z,13.50
2022-09-15T23:03:37.239Z,13.50
2022-09-15T23:06:54.981Z,13.50
2022-09-15T23:09:21.752Z,13.50
2022-09-15T23:15:19.910Z,13.40
2022-09-15T23:17:47.336Z,13.40
2022-09-15T23:20:14.139Z,13.40
2022-09-15T23:23:12.388Z,13.40
2022-09-15T23:26:22.385Z,13.30
2022-09-15T23:28:51.923Z,13.30
2022-09-15T23:31:19.002Z,13.30
2022-09-15T23:33:46.013Z,13.30
2022-09-15T23:36:41.507Z,13.30
2022-09-15T23:42:37.404Z,13.20
2022-09-15T23:45:04.526Z,13.20
2022-09-15T23:47:31.371Z,13.20
2022-09-15T23:49:58.174Z,13.20
2022-09-15T23:52:48.101Z,13.20
2022-09-15T23:55:15.256Z,13.20
2022-09-15T23:59:58.147Z,13.10
